Hanjin Boston — DDZK2 — position and weather

sailwx.info

Track history (hours):
 
Tides and Currents Weather Stations Pressure Air Temp Water Temp Dewpoint Dewpoint Depression Visibility Wind Speed Wind Dir Waves Ship Positions

Hanjin Boston

Last reported at 2016-May-12 07:19 UTC. Time now 2017-Dec-14 00:42 UTC.
Position N 31°40' W 080°06'.
Warning: this ship's position is years out of date!

Length 300.1 m; beam 42.8 m; draft 14.5 m.

Type: Ship. MMSI: 218071000.

Date/timePositionNaut miles runAvg speedWind from/ knotsBaromVisibWave heightAir tempDewpointWater temp
2016-May-12 07:19N 31°40' W 080°06'1316.1
2016-May-12 06:30N 31°46' W 080°19'1515.8
2016-May-12 05:34N 31°52' W 080°35'1010.1
2016-May-12 04:33N 31°59' W 080°45'1111.3
2016-May-12 03:33N 32°04' W 080°57'7 6.8
2016-May-12 02:34N 32°05' W 081°05'4 4.1
2016-May-12 01:33N 32°08' W 081°08'0 0.0
2016-May-12 00:31N 32°08' W 081°08'0 0.0
2016-May-11 23:33N 32°08' W 081°08'0 0.0
2016-May-11 22:30N 32°08' W 081°08'0 0.0
2016-May-11 21:32N 32°08' W 081°08'0 0.0
2016-May-11 20:32N 32°08' W 081°08'0 0.1
2016-May-11 19:32N 32°08' W 081°08'0 0.1
2016-May-11 18:33N 32°08' W 081°08'0 0.0
2016-May-11 17:33N 32°08' W 081°08'0 0.0
2016-May-11 16:29N 32°08' W 081°08'0 0.0
2016-May-11 15:32N 32°08' W 081°08'0 0.0
2016-May-11 14:31N 32°08' W 081°08'0 0.0
2016-May-11 13:31N 32°08' W 081°08'0 0.0
2016-May-11 12:33N 32°08' W 081°08'0 0.0
2016-May-11 11:33N 32°08' W 081°08'0 0.0
2016-May-11 10:33N 32°08' W 081°08'0 0.0
2016-May-11 09:32N 32°08' W 081°08'0 0.0
2016-May-11 08:29N 32°08' W 081°08'0 0.0
2016-May-11 07:31N 32°08' W 081°08'0 0.0
2016-May-11 06:31N 32°08' W 081°08'0 0.0
2016-May-11 05:33N 32°08' W 081°08'0 0.0
2016-May-11 04:33N 32°08' W 081°08'0 0.0
2016-May-11 03:33N 32°08' W 081°08'0 0.0
2016-May-11 02:32N 32°08' W 081°08'0 0.0
2016-May-11 01:32N 32°08' W 081°08'0 0.3
2016-May-11 00:33N 32°08' W 081°08'6 5.8
2016-May-10 23:33N 32°05' W 081°02'1010.1
2016-May-10 22:34N 32°02' W 080°51'1313.2
2016-May-10 21:33N 31°57' W 080°37'1615.4
2016-May-10 20:30N 31°59' W 080°18'1616.9
2016-May-10 19:32N 32°03' W 079°59'16316.3
2016-May-10 09:29N 33°26' W 077°11'1414.8
2016-May-10 08:33N 33°33' W 076°58'1815.1
2016-May-10 07:20N 33°46' W 076°42'1215.2
2016-May-10 06:33N 33°54' W 076°31'1515.1
2016-May-10 05:33N 34°05' W 076°18'1514.9
2016-May-10 04:33N 34°16' W 076°06'1514.8
2016-May-10 03:33N 34°26' W 075°53'1615.8
2016-May-10 02:33N 34°37' W 075°39'1413.7
2016-May-10 01:33N 34°46' W 075°27'1212.2
2016-May-10 00:34N 34°55' W 075°16'5 4.9
2016-May-09 23:34N 34°58' W 075°12'9 9.1
2016-May-09 22:34N 35°05' W 075°04'1110.5
2016-May-09 21:33N 35°15' W 075°02'9414.4
2016-May-09 15:04N 36°45' W 075°34'915.3
2016-May-09 14:30N 36°48' W 075°44'1415.3
2016-May-09 13:33N 36°56' W 075°59'1413.5
2016-May-09 12:33N 37°00' W 076°15'8 8.5
2016-May-09 11:34N 36°53' W 076°20'1 0.9
2016-May-09 10:33N 36°52' W 076°21'0 0.0
2016-May-08 21:33N 36°53' W 076°21'7 6.8
2016-May-08 20:33N 36°59' W 076°19'1312.8
2016-May-08 19:33N 36°58' W 076°03'9 9.1
2016-May-08 18:33N 36°53' W 075°53'10 9.6
2016-May-08 17:33N 36°49' W 075°42'13410.1
2016-May-08 04:17N 38°43' W 074°12'1013.7
2016-May-08 03:33N 38°52' W 074°06'4013.4
2016-May-08 00:34N 39°31' W 073°55'1413.6
2016-May-07 23:32N 39°45' W 073°52'1313.3
2016-May-07 22:34N 39°58' W 073°51'1413.8
2016-May-07 21:32N 40°12' W 073°49'1510.9
2016-May-07 20:12N 40°27' W 073°48'812.4
2016-May-07 19:33N 40°30' W 073°57'1111.2
2016-May-07 18:33N 40°39' W 074°07'2 2.2
2016-May-07 17:34N 40°41' W 074°09'0 0.0
2016-May-07 16:33N 40°41' W 074°09'0 0.0
2016-May-07 15:33N 40°41' W 074°09'0 0.0
2016-May-07 14:32N 40°41' W 074°09'0 0.0
2016-May-07 13:32N 40°41' W 074°09'0 0.0
2016-May-07 12:31N 40°41' W 074°09'0 0.0
2016-May-07 11:31N 40°41' W 074°09'0 0.0
2016-May-07 10:34N 40°41' W 074°09'0 0.0
2016-May-07 09:33N 40°41' W 074°09'0 0.0
2016-May-07 08:33N 40°41' W 074°09'0 0.0
2016-May-07 07:32N 40°41' W 074°09'0 0.0
2016-May-07 06:32N 40°41' W 074°09'0 0.0
2016-May-07 05:31N 40°41' W 074°09'0 0.0
2016-May-07 04:31N 40°41' W 074°09'0 0.0
2016-May-07 03:33N 40°41' W 074°09'0 0.0
2016-May-07 02:33N 40°41' W 074°09'0 0.0
2016-May-07 01:33N 40°41' W 074°09'0 0.0
2016-May-07 00:32N 40°41' W 074°09'0 0.0
2016-May-06 23:32N 40°41' W 074°09'0 0.0
2016-May-06 22:31N 40°41' W 074°09'0 0.0
2016-May-06 21:31N 40°41' W 074°09'0 0.0
2016-May-06 20:33N 40°41' W 074°09'0 0.0
2016-May-06 19:33N 40°41' W 074°09'0 0.0
2016-May-06 18:33N 40°41' W 074°09'0 0.0
2016-May-06 17:32N 40°41' W 074°09'0 0.0
2016-May-06 16:32N 40°41' W 074°09'0 0.0
2016-May-06 15:31N 40°41' W 074°09'0 0.0
2016-May-06 14:31N 40°41' W 074°09'0 0.0
2016-May-06 13:33N 40°41' W 074°09'0 0.0
2016-May-06 12:33N 40°41' W 074°09'0 0.0
2016-May-06 11:32N 40°41' W 074°09'0 0.0
2016-May-06 10:32N 40°41' W 074°09'0 0.0
2016-May-06 09:32N 40°41' W 074°09'0 0.0
2016-May-06 08:31N 40°41' W 074°09'0 0.0
2016-May-06 07:31N 40°41' W 074°09'0 0.0
2016-May-06 06:30N 40°41' W 074°09'0 0.0
2016-May-06 05:33N 40°41' W 074°09'0 0.0
2016-May-06 04:29N 40°41' W 074°09'0 0.0
2016-May-06 03:32N 40°41' W 074°09'0 0.0
2016-May-06 02:32N 40°41' W 074°09'0 0.0
2016-May-06 01:31N 40°41' W 074°09'0 0.0
2016-May-06 00:31N 40°41' W 074°09'0 0.0
2016-May-05 23:33N 40°41' W 074°09'0 0.0
2016-May-05 22:33N 40°41' W 074°09'0 0.0
2016-May-05 21:33N 40°41' W 074°09'2 2.1
2016-May-05 20:33N 40°39' W 074°09'6 6.1
2016-May-05 19:33N 40°35' W 074°02'1312.6
2016-May-05 18:33N 40°27' W 073°49'8 8.1
2016-May-05 17:32N 40°27' W 073°38'  
Track history (hours):
 
Tides and Currents Weather Stations Pressure Air Temp Water Temp Dewpoint Dewpoint Depression Visibility Wind Speed Wind Dir Waves Ship Positions

Hanjin Boston

Last reported at 2016-May-12 07:19 UTC. Time now 2017-Dec-14 00:42 UTC.
Position N 31°40' W 080°06'.
Warning: this ship's position is years out of date!

Length 300.1 m; beam 42.8 m; draft 14.5 m.

Type: Ship. MMSI: 218071000.

Date/timePositionNaut miles runAvg speedWind from/ knotsBaromVisibWave heightAir tempDewpointWater temp
2016-May-12 07:19N 31°40' W 080°06'1316.1
2016-May-12 06:30N 31°46' W 080°19'1515.8
2016-May-12 05:34N 31°52' W 080°35'1010.1
2016-May-12 04:33N 31°59' W 080°45'1111.3
2016-May-12 03:33N 32°04' W 080°57'7 6.8
2016-May-12 02:34N 32°05' W 081°05'4 4.1
2016-May-12 01:33N 32°08' W 081°08'0 0.0
2016-May-12 00:31N 32°08' W 081°08'0 0.0
2016-May-11 23:33N 32°08' W 081°08'0 0.0
2016-May-11 22:30N 32°08' W 081°08'0 0.0
2016-May-11 21:32N 32°08' W 081°08'0 0.0
2016-May-11 20:32N 32°08' W 081°08'0 0.1
2016-May-11 19:32N 32°08' W 081°08'0 0.1
2016-May-11 18:33N 32°08' W 081°08'0 0.0
2016-May-11 17:33N 32°08' W 081°08'0 0.0
2016-May-11 16:29N 32°08' W 081°08'0 0.0
2016-May-11 15:32N 32°08' W 081°08'0 0.0
2016-May-11 14:31N 32°08' W 081°08'0 0.0
2016-May-11 13:31N 32°08' W 081°08'0 0.0
2016-May-11 12:33N 32°08' W 081°08'0 0.0
2016-May-11 11:33N 32°08' W 081°08'0 0.0
2016-May-11 10:33N 32°08' W 081°08'0 0.0
2016-May-11 09:32N 32°08' W 081°08'0 0.0
2016-May-11 08:29N 32°08' W 081°08'0 0.0
2016-May-11 07:31N 32°08' W 081°08'0 0.0
2016-May-11 06:31N 32°08' W 081°08'0 0.0
2016-May-11 05:33N 32°08' W 081°08'0 0.0
2016-May-11 04:33N 32°08' W 081°08'0 0.0
2016-May-11 03:33N 32°08' W 081°08'0 0.0
2016-May-11 02:32N 32°08' W 081°08'0 0.0
2016-May-11 01:32N 32°08' W 081°08'0 0.3
2016-May-11 00:33N 32°08' W 081°08'6 5.8
2016-May-10 23:33N 32°05' W 081°02'1010.1
2016-May-10 22:34N 32°02' W 080°51'1313.2
2016-May-10 21:33N 31°57' W 080°37'1615.4
2016-May-10 20:30N 31°59' W 080°18'1616.9
2016-May-10 19:32N 32°03' W 079°59'16316.3
2016-May-10 09:29N 33°26' W 077°11'1414.8
2016-May-10 08:33N 33°33' W 076°58'1815.1
2016-May-10 07:20N 33°46' W 076°42'1215.2
2016-May-10 06:33N 33°54' W 076°31'1515.1
2016-May-10 05:33N 34°05' W 076°18'1514.9
2016-May-10 04:33N 34°16' W 076°06'1514.8
2016-May-10 03:33N 34°26' W 075°53'1615.8
2016-May-10 02:33N 34°37' W 075°39'1413.7
2016-May-10 01:33N 34°46' W 075°27'1212.2
2016-May-10 00:34N 34°55' W 075°16'5 4.9
2016-May-09 23:34N 34°58' W 075°12'9 9.1
2016-May-09 22:34N 35°05' W 075°04'1110.5
2016-May-09 21:33N 35°15' W 075°02'9414.4
2016-May-09 15:04N 36°45' W 075°34'915.3
2016-May-09 14:30N 36°48' W 075°44'1415.3
2016-May-09 13:33N 36°56' W 075°59'1413.5
2016-May-09 12:33N 37°00' W 076°15'8 8.5
2016-May-09 11:34N 36°53' W 076°20'1 0.9
2016-May-09 10:33N 36°52' W 076°21'0 0.0
2016-May-08 21:33N 36°53' W 076°21'7 6.8
2016-May-08 20:33N 36°59' W 076°19'1312.8
2016-May-08 19:33N 36°58' W 076°03'9 9.1
2016-May-08 18:33N 36°53' W 075°53'10 9.6
2016-May-08 17:33N 36°49' W 075°42'13410.1
2016-May-08 04:17N 38°43' W 074°12'1013.7
2016-May-08 03:33N 38°52' W 074°06'4013.4
2016-May-08 00:34N 39°31' W 073°55'1413.6
2016-May-07 23:32N 39°45' W 073°52'1313.3
2016-May-07 22:34N 39°58' W 073°51'1413.8
2016-May-07 21:32N 40°12' W 073°49'1510.9
2016-May-07 20:12N 40°27' W 073°48'812.4
2016-May-07 19:33N 40°30' W 073°57'1111.2
2016-May-07 18:33N 40°39' W 074°07'2 2.2
2016-May-07 17:34N 40°41' W 074°09'0 0.0
2016-May-07 16:33N 40°41' W 074°09'0 0.0
2016-May-07 15:33N 40°41' W 074°09'0 0.0
2016-May-07 14:32N 40°41' W 074°09'0 0.0
2016-May-07 13:32N 40°41' W 074°09'0 0.0
2016-May-07 12:31N 40°41' W 074°09'0 0.0
2016-May-07 11:31N 40°41' W 074°09'0 0.0
2016-May-07 10:34N 40°41' W 074°09'0 0.0
2016-May-07 09:33N 40°41' W 074°09'0 0.0
2016-May-07 08:33N 40°41' W 074°09'0 0.0
2016-May-07 07:32N 40°41' W 074°09'0 0.0
2016-May-07 06:32N 40°41' W 074°09'0 0.0
2016-May-07 05:31N 40°41' W 074°09'0 0.0
2016-May-07 04:31N 40°41' W 074°09'0 0.0
2016-May-07 03:33N 40°41' W 074°09'0 0.0
2016-May-07 02:33N 40°41' W 074°09'0 0.0
2016-May-07 01:33N 40°41' W 074°09'0 0.0
2016-May-07 00:32N 40°41' W 074°09'0 0.0
2016-May-06 23:32N 40°41' W 074°09'0 0.0
2016-May-06 22:31N 40°41' W 074°09'0 0.0
2016-May-06 21:31N 40°41' W 074°09'0 0.0
2016-May-06 20:33N 40°41' W 074°09'0 0.0
2016-May-06 19:33N 40°41' W 074°09'0 0.0
2016-May-06 18:33N 40°41' W 074°09'0 0.0
2016-May-06 17:32N 40°41' W 074°09'0 0.0
2016-May-06 16:32N 40°41' W 074°09'0 0.0
2016-May-06 15:31N 40°41' W 074°09'0 0.0
2016-May-06 14:31N 40°41' W 074°09'0 0.0
2016-May-06 13:33N 40°41' W 074°09'0 0.0
2016-May-06 12:33N 40°41' W 074°09'0 0.0
2016-May-06 11:32N 40°41' W 074°09'0 0.0
2016-May-06 10:32N 40°41' W 074°09'0 0.0
2016-May-06 09:32N 40°41' W 074°09'0 0.0
2016-May-06 08:31N 40°41' W 074°09'0 0.0
2016-May-06 07:31N 40°41' W 074°09'0 0.0
2016-May-06 06:30N 40°41' W 074°09'0 0.0
2016-May-06 05:33N 40°41' W 074°09'0 0.0
2016-May-06 04:29N 40°41' W 074°09'0 0.0
2016-May-06 03:32N 40°41' W 074°09'0 0.0
2016-May-06 02:32N 40°41' W 074°09'0 0.0
2016-May-06 01:31N 40°41' W 074°09'0 0.0
2016-May-06 00:31N 40°41' W 074°09'0 0.0
2016-May-05 23:33N 40°41' W 074°09'0 0.0
2016-May-05 22:33N 40°41' W 074°09'0 0.0
2016-May-05 21:33N 40°41' W 074°09'2 2.1
2016-May-05 20:33N 40°39' W 074°09'6 6.1
2016-May-05 19:33N 40°35' W 074°02'1312.6
2016-May-05 18:33N 40°27' W 073°49'8 8.1
2016-May-05 17:32N 40°27' W 073°38'  

Dump ship's entire track history